Startpagina
METAR-TAF:

METAR-TAF

Vliegvelden :

Nouakchott, Mauretanië

Internationale luchthaven van Nouakchott

breedte: 18-18-36N, lengte: 015-58-11W, hoogte: 3 m

Actueel weer

Dit bericht is 20 minuten geleden gemaakt, om 17:30 UTC
Wind 9 kt uit het oostnoordoosten, variërend tussen het noorden en het oosten
Temperatuur 29°C
Vochtigheid 15%
Druk 1011 hPa
Zicht 10 km of meer
geen wolken onder 1500 m en geen cumulonimbus

METAR: GQNO 181730Z 06009KT 360V080 CAVOK 29/00 Q1011 NOSIG

Tijdstip: 17:50 (17:50 UTC)

Verwachting

Dit bericht is 6 uur en het 50 minuten geleden gemaakt, om 11:00 UTC
Verwachting geldig van 18 om 12 UTC tot 19 om 18 UTC
Wind 12 kt uit het oosten
Zicht: 8000 m
Wijzigt naar
van 18 om 16 UTC tot 18 om 20 UTC
Wind 8 kt uit het noordnoordoosten
Wijzigt naar
van 19 om 07 UTC tot 19 om 10 UTC
Wind 10 kt uit het oostnoordoosten

TAF: GQNO 181100Z 1812/1918 08012KT 8000 NSC BECMG 1816/1820 02008KT BECMG 1907/1910 07010KT

Waarnemingen en weersverwachtingen van meer dan 4000 vliegvelden (METAR en TAF).

De beschikbare stations zijn de gele en rode punten op de kaart.

Ga met uw muis naar het station om de naam te zien.

Klik dan om waarnemingen en weersverwachtingen te zien.

kaart wijzigen: klik op de groene knoppen met een zwart kruis om in te zoomen, op de groene knop met een streepje om uit te zoomen of op de groene pijlen voor aangrenzende kaarten.


METAR-TAF: